createdAt,value
2019-03-29T00:04:52.969Z,5.26
2019-03-29T00:15:36.791Z,5.11
2019-03-29T00:26:20.947Z,5.01
2019-03-29T00:37:00.609Z,4.82
2019-03-29T00:47:41.335Z,4.67
2019-03-29T00:58:22.854Z,4.60
2019-03-29T01:09:05.248Z,4.53
2019-03-29T01:19:48.195Z,4.39
2019-03-29T01:30:28.039Z,4.33
2019-03-29T01:41:12.559Z,4.19
2019-03-29T01:51:56.753Z,4.10
2019-03-29T02:02:41.653Z,3.80
2019-03-29T02:13:23.020Z,3.76
2019-03-29T02:24:06.852Z,3.65
2019-03-29T02:34:51.716Z,3.56
2019-03-29T02:45:36.468Z,3.50
2019-03-29T02:56:12.404Z,3.46
2019-03-29T03:06:55.420Z,3.28
2019-03-29T03:17:37.038Z,3.20
2019-03-29T03:28:18.136Z,3.13
2019-03-29T03:39:02.574Z,3.07
2019-03-29T03:49:45.718Z,2.98
2019-03-29T04:00:31.358Z,2.87
2019-03-29T04:11:12.947Z,2.83
2019-03-29T04:21:56.703Z,2.81
2019-03-29T04:32:42.009Z,2.82
2019-03-29T04:43:25.580Z,2.69
2019-03-29T04:54:09.726Z,2.70
2019-03-29T05:04:53.935Z,2.65
2019-03-29T05:15:37.599Z,2.61
2019-03-29T05:26:18.851Z,2.61
2019-03-29T05:37:01.331Z,2.57
2019-03-29T05:47:42.284Z,2.60
2019-03-29T05:58:19.858Z,2.75
2019-03-29T06:09:03.456Z,2.96
2019-03-29T06:19:45.255Z,3.68
2019-03-29T06:30:29.228Z,3.64
2019-03-29T06:41:13.113Z,3.85
2019-03-29T06:51:57.842Z,4.26
2019-03-29T07:02:41.044Z,4.70
2019-03-29T07:13:23.245Z,5.24
2019-03-29T07:24:06.981Z,5.83
2019-03-29T07:34:51.527Z,6.56
2019-03-29T07:45:34.457Z,7.20
2019-03-29T07:56:18.671Z,7.75
2019-03-29T08:07:02.827Z,8.41
2019-03-29T08:17:47.790Z,8.92
2019-03-29T08:28:30.946Z,9.28
2019-03-29T08:39:27.352Z,10.03
2019-03-29T08:49:55.539Z,10.52
2019-03-29T09:00:39.987Z,11.43
2019-03-29T09:11:23.457Z,11.85
2019-03-29T09:22:08.638Z,12.49
2019-03-29T09:32:52.731Z,12.90
2019-03-29T09:43:33.408Z,13.18
2019-03-29T09:54:20.383Z,13.66
2019-03-29T10:05:01.899Z,14.06
2019-03-29T10:15:46.090Z,14.71
2019-03-29T10:26:32.547Z,15.00
2019-03-29T10:37:14.404Z,15.26
2019-03-29T10:47:58.400Z,15.57
2019-03-29T10:58:44.712Z,15.79
2019-03-29T11:09:19.503Z,15.99
2019-03-29T11:20:00.408Z,16.24
2019-03-29T11:30:43.074Z,16.68
2019-03-29T11:41:17.329Z,16.73
2019-03-29T11:51:58.211Z,17.11
2019-03-29T12:02:38.742Z,17.45
2019-03-29T12:13:10.814Z,17.88
2019-03-29T12:23:52.214Z,18.33
2019-03-29T12:34:30.573Z,18.53
2019-03-29T12:45:11.183Z,18.73
2019-03-29T12:55:49.435Z,18.64
2019-03-29T13:06:34.170Z,19.36
2019-03-29T13:17:14.908Z,19.10
2019-03-29T13:27:59.715Z,19.43
2019-03-29T13:38:40.587Z,18.84
2019-03-29T13:49:22.112Z,18.34
2019-03-29T14:00:07.132Z,19.63
2019-03-29T14:10:47.082Z,18.94
2019-03-29T14:21:31.683Z,19.75
2019-03-29T14:32:11.203Z,19.60
2019-03-29T14:42:46.670Z,19.60
2019-03-29T14:53:27.400Z,20.08
2019-03-29T15:04:09.677Z,20.26
2019-03-29T15:15:05.256Z,20.01
2019-03-29T15:25:32.053Z,19.95
2019-03-29T15:36:10.595Z,20.51
2019-03-29T15:46:54.141Z,19.66
2019-03-29T15:57:37.936Z,19.76
2019-03-29T16:08:23.169Z,20.10
2019-03-29T16:19:08.739Z,19.71
2019-03-29T16:29:52.772Z,19.57
2019-03-29T16:40:35.107Z,19.55
2019-03-29T16:51:11.583Z,19.81
2019-03-29T17:01:53.967Z,19.01
2019-03-29T17:12:38.004Z,19.04
2019-03-29T17:23:12.144Z,19.18
2019-03-29T17:33:52.533Z,18.86
2019-03-29T17:44:25.916Z,18.06
2019-03-29T17:55:05.072Z,17.17
2019-03-29T18:05:44.352Z,16.53
2019-03-29T18:16:30.982Z,15.83
2019-03-29T18:27:06.738Z,15.44
2019-03-29T18:37:45.048Z,14.79
2019-03-29T18:48:23.580Z,14.47
2019-03-29T18:59:01.367Z,14.16
2019-03-29T19:09:38.372Z,13.41
2019-03-29T19:20:27.281Z,12.98
2019-03-29T19:31:01.036Z,12.51
2019-03-29T19:41:41.579Z,12.00
2019-03-29T19:52:24.984Z,11.53
2019-03-29T20:03:03.916Z,11.12
2019-03-29T20:13:45.053Z,10.70
2019-03-29T20:24:27.504Z,10.41
2019-03-29T20:35:09.171Z,10.05
2019-03-29T20:45:50.087Z,9.93
2019-03-29T20:56:33.487Z,9.65
2019-03-29T21:07:14.049Z,9.34
2019-03-29T21:17:57.118Z,9.10
2019-03-29T21:28:35.215Z,8.81
2019-03-29T21:39:12.731Z,8.55
2019-03-29T21:49:51.775Z,8.44
2019-03-29T22:00:25.307Z,8.29
2019-03-29T22:11:03.532Z,8.00
2019-03-29T22:21:38.402Z,7.73
2019-03-29T22:42:54.238Z,7.22
2019-03-29T22:53:32.300Z,7.05
2019-03-29T23:04:06.780Z,6.99
2019-03-29T23:14:47.566Z,6.80
2019-03-29T23:25:19.688Z,6.57
2019-03-29T23:35:53.798Z,6.38
2019-03-29T23:46:34.236Z,6.25
2019-03-29T23:57:15.866Z,6.05
